createdAt,value
2023-04-24T00:01:59.308Z,0.90
2023-04-24T00:04:27.175Z,1.05
2023-04-24T00:06:58.225Z,1.90
2023-04-24T00:09:25.641Z,0.88
2023-04-24T00:11:53.091Z,1.20
2023-04-24T00:14:20.053Z,0.60
2023-04-24T00:16:47.115Z,2.08
2023-04-24T00:19:14.158Z,0.90
2023-04-24T00:21:42.591Z,0.63
2023-04-24T00:24:10.205Z,1.27
2023-04-24T00:26:37.161Z,0.77
2023-04-24T00:29:04.074Z,2.15
2023-04-24T00:31:31.031Z,2.25
2023-04-24T00:33:58.961Z,0.60
2023-04-24T00:36:26.049Z,0.60
2023-04-24T00:38:52.947Z,1.77
2023-04-24T00:41:20.086Z,0.77
2023-04-24T00:43:47.198Z,0.60
2023-04-24T00:46:15.314Z,0.40
2023-04-24T00:48:42.491Z,3.95
2023-04-24T00:51:09.659Z,0.95
2023-04-24T00:53:36.637Z,0.70
2023-04-24T00:56:04.104Z,0.88
2023-04-24T00:58:32.218Z,0.68
2023-04-24T01:01:02.116Z,2.28
2023-04-24T01:03:32.734Z,0.85
2023-04-24T01:06:00.289Z,1.48
2023-04-24T01:08:29.522Z,1.35
2023-04-24T01:10:58.346Z,0.55
2023-04-24T01:13:25.563Z,1.17
2023-04-24T01:15:52.707Z,3.75
2023-04-24T01:18:19.670Z,1.23
2023-04-24T01:20:47.807Z,0.98
2023-04-24T01:23:15.020Z,0.60
2023-04-24T01:25:42.204Z,0.95
2023-04-24T01:28:09.295Z,2.58
2023-04-24T01:30:36.412Z,0.90
2023-04-24T01:33:03.867Z,2.17
2023-04-24T01:35:30.803Z,0.90
2023-04-24T01:37:57.698Z,0.85
2023-04-24T01:40:24.674Z,2.35
2023-04-24T01:42:52.594Z,1.50
2023-04-24T01:45:19.501Z,0.73
2023-04-24T01:47:47.484Z,2.70
2023-04-24T01:50:14.996Z,1.35
2023-04-24T01:52:42.004Z,1.02
2023-04-24T01:55:09.696Z,1.63
2023-04-24T01:57:37.375Z,0.70
2023-04-24T02:00:05.827Z,1.15
2023-04-24T02:02:33.008Z,1.35
2023-04-24T02:05:00.190Z,1.20
2023-04-24T02:07:27.146Z,0.70
2023-04-24T02:09:54.063Z,3.17
2023-04-24T02:12:20.964Z,0.98
2023-04-24T02:14:47.872Z,0.80
2023-04-24T02:17:16.456Z,1.20
2023-04-24T02:19:43.730Z,1.02
2023-04-24T02:22:11.630Z,0.73
2023-04-24T02:24:39.864Z,1.00
2023-04-24T02:27:07.418Z,1.05
2023-04-24T02:29:34.458Z,0.70
2023-04-24T02:32:01.362Z,2.15
2023-04-24T02:34:28.326Z,0.98
2023-04-24T02:36:55.239Z,3.20
2023-04-24T02:39:22.297Z,1.45
2023-04-24T02:41:49.087Z,1.50
2023-04-24T02:44:16.082Z,1.08
2023-04-24T02:46:43.078Z,1.08
2023-04-24T02:49:10.012Z,1.73
2023-04-24T02:51:39.171Z,1.77
2023-04-24T02:54:06.110Z,2.53
2023-04-24T02:56:32.995Z,2.73
2023-04-24T02:58:59.780Z,4.10
2023-04-24T03:01:26.900Z,3.65
2023-04-24T03:03:53.988Z,3.33
2023-04-24T03:06:21.943Z,3.33
2023-04-24T03:08:48.867Z,1.98
2023-04-24T03:11:15.756Z,4.75
2023-04-24T03:13:42.638Z,3.80
2023-04-24T03:16:09.568Z,3.27
2023-04-24T03:18:36.492Z,2.97
2023-04-24T03:21:04.492Z,4.97
2023-04-24T03:23:31.466Z,5.93
2023-04-24T03:25:58.444Z,4.07
2023-04-24T03:28:26.184Z,4.00
2023-04-24T03:30:53.189Z,4.10
2023-04-24T03:33:20.174Z,3.60
2023-04-24T03:35:47.046Z,2.97
2023-04-24T03:38:13.915Z,5.60
2023-04-24T03:40:40.863Z,4.93
2023-04-24T03:43:07.876Z,4.73
2023-04-24T03:45:34.870Z,4.50
2023-04-24T03:48:01.794Z,6.55
2023-04-24T03:50:30.169Z,8.03
2023-04-24T03:52:57.071Z,7.37
2023-04-24T03:55:23.869Z,8.33
2023-04-24T03:57:50.807Z,6.17
2023-04-24T04:00:17.680Z,7.43
2023-04-24T04:02:44.645Z,8.17
2023-04-24T04:05:11.630Z,11.10
2023-04-24T04:07:38.710Z,10.47
2023-04-24T04:10:08.020Z,11.73
2023-04-24T04:12:35.001Z,10.40
2023-04-24T04:15:01.903Z,10.63
2023-04-24T04:17:28.877Z,9.23
2023-04-24T04:19:56.162Z,11.00
2023-04-24T04:22:23.080Z,12.27
2023-04-24T04:24:51.779Z,10.07
2023-04-24T04:27:19.569Z,9.13
2023-04-24T04:29:46.782Z,6.97
2023-04-24T04:32:13.804Z,12.13
2023-04-24T04:34:40.793Z,9.57
2023-04-24T04:37:07.766Z,8.53
2023-04-24T04:39:34.648Z,10.10
2023-04-24T04:42:01.589Z,9.80
2023-04-24T04:44:30.383Z,9.83
2023-04-24T04:46:57.983Z,11.43
2023-04-24T04:49:25.359Z,9.57
2023-04-24T04:51:52.277Z,9.97
2023-04-24T04:54:19.221Z,8.90
2023-04-24T04:56:46.168Z,11.17
2023-04-24T04:59:13.365Z,10.50
2023-04-24T05:01:40.464Z,9.20
2023-04-24T05:04:07.540Z,11.90
2023-04-24T05:06:34.892Z,10.07
2023-04-24T05:09:01.690Z,10.50
2023-04-24T05:11:28.546Z,9.37
2023-04-24T05:13:55.471Z,9.40
2023-04-24T05:16:22.586Z,11.43
2023-04-24T05:18:49.698Z,9.23
2023-04-24T05:21:16.601Z,8.20
2023-04-24T05:23:43.407Z,11.57
2023-04-24T05:26:10.473Z,10.30
2023-04-24T05:28:37.844Z,8.47
2023-04-24T05:31:05.510Z,8.07
2023-04-24T05:33:32.372Z,8.87
2023-04-24T05:35:59.304Z,8.80
2023-04-24T05:38:26.270Z,9.63
2023-04-24T05:40:53.157Z,10.63
2023-04-24T05:43:20.000Z,8.00
2023-04-24T05:45:46.960Z,9.83
2023-04-24T05:48:13.893Z,7.97
2023-04-24T05:50:41.099Z,8.77
2023-04-24T05:53:08.276Z,11.80
2023-04-24T05:55:35.385Z,8.03
2023-04-24T05:58:02.268Z,10.10
2023-04-24T06:00:29.758Z,10.90
2023-04-24T06:02:57.032Z,7.00
2023-04-24T06:05:24.104Z,9.10
2023-04-24T06:07:52.210Z,8.18
2023-04-24T06:10:19.149Z,7.80
2023-04-24T06:12:46.103Z,7.43
2023-04-24T06:17:58.693Z,7.80
2023-04-24T06:20:25.958Z,8.00
2023-04-24T06:22:52.928Z,7.97
2023-04-24T06:25:20.185Z,8.07
2023-04-24T06:27:47.412Z,9.67
2023-04-24T06:30:14.605Z,8.60
2023-04-24T06:32:41.633Z,8.80
2023-04-24T06:35:10.749Z,8.00
2023-04-24T06:37:37.684Z,8.50
2023-04-24T06:40:07.778Z,9.27
2023-04-24T06:42:36.074Z,9.00
2023-04-24T06:45:03.460Z,8.53
2023-04-24T06:50:15.398Z,8.20
2023-04-24T06:52:42.367Z,8.38
2023-04-24T06:55:09.626Z,8.40
2023-04-24T06:57:36.679Z,7.93
2023-04-24T07:02:51.254Z,8.55
2023-04-24T07:05:20.918Z,9.67
2023-04-24T07:07:49.990Z,7.80
2023-04-24T07:13:02.228Z,9.00
2023-04-24T07:15:29.208Z,7.50
2023-04-24T07:20:40.927Z,8.25
2023-04-24T07:23:07.893Z,10.32
2023-04-24T07:25:35.089Z,8.73
2023-04-24T07:28:02.091Z,10.15
2023-04-24T07:30:33.772Z,8.35
2023-04-24T07:33:00.863Z,9.10
2023-04-24T07:35:28.308Z,9.93
2023-04-24T07:37:55.356Z,9.90
2023-04-24T07:40:23.323Z,8.27
2023-04-24T07:42:50.316Z,9.37
2023-04-24T07:45:17.395Z,10.07
2023-04-24T07:47:46.549Z,10.47
2023-04-24T07:50:14.226Z,11.07
2023-04-24T07:52:41.268Z,9.93
2023-04-24T07:55:08.487Z,8.27
2023-04-24T07:57:36.211Z,9.07
2023-04-24T08:00:06.722Z,8.33
2023-04-24T08:05:19.057Z,10.37
2023-04-24T08:07:50.362Z,6.27
2023-04-24T08:10:17.337Z,7.47
2023-04-24T08:12:44.438Z,6.30
2023-04-24T08:15:11.779Z,8.63
2023-04-24T08:20:23.110Z,7.23
2023-04-24T08:22:50.067Z,6.13
2023-04-24T08:25:17.224Z,7.37
2023-04-24T08:27:44.649Z,6.20
2023-04-24T08:30:12.115Z,4.93
2023-04-24T08:32:39.071Z,7.93
2023-04-24T08:37:51.950Z,3.90
2023-04-24T08:40:19.576Z,3.93
2023-04-24T08:42:46.567Z,3.53
2023-04-24T08:48:00.280Z,2.60
2023-04-24T08:50:27.300Z,1.53
2023-04-24T08:55:40.227Z,0.80
2023-04-24T08:58:07.801Z,0.93
2023-04-24T09:00:35.424Z,0.83
2023-04-24T09:03:04.284Z,1.03
2023-04-24T09:05:31.696Z,1.33
2023-04-24T09:08:00.517Z,1.43
2023-04-24T09:10:28.496Z,0.83
2023-04-24T09:12:56.324Z,1.00
2023-04-24T09:15:23.474Z,1.40
2023-04-24T09:17:51.232Z,1.80
2023-04-24T09:20:18.306Z,0.93
2023-04-24T09:22:46.591Z,1.47
2023-04-24T09:25:13.832Z,0.50
2023-04-24T09:30:31.075Z,1.57
2023-04-24T09:36:01.494Z,0.40
2023-04-24T09:38:37.876Z,0.33
2023-04-24T09:41:08.553Z,0.60
2023-04-24T09:43:36.800Z,3.63
2023-04-24T09:51:40.779Z,1.17
2023-04-24T09:54:22.474Z,0.90
2023-04-24T09:56:51.816Z,1.03
2023-04-24T09:59:20.965Z,1.50
2023-04-24T10:01:50.236Z,1.00
2023-04-24T10:04:28.757Z,1.30
2023-04-24T10:06:57.854Z,1.20
2023-04-24T10:09:27.942Z,2.13
2023-04-24T10:14:42.450Z,1.60
2023-04-24T10:17:12.714Z,4.53
2023-04-24T10:22:28.181Z,3.67
2023-04-24T10:24:55.447Z,3.03
2023-04-24T10:27:24.029Z,1.73
2023-04-24T10:32:39.271Z,1.60
2023-04-24T10:35:09.774Z,2.23
2023-04-24T10:37:41.943Z,3.70
2023-04-24T10:40:12.600Z,1.93
2023-04-24T10:45:28.451Z,1.37
2023-04-24T10:48:04.374Z,2.93
2023-04-24T10:56:23.180Z,1.80
2023-04-24T10:58:54.792Z,2.23
2023-04-24T11:01:33.819Z,3.30
2023-04-24T11:06:48.557Z,3.70
2023-04-24T11:09:17.428Z,4.10
2023-04-24T11:17:44.092Z,5.97
2023-04-24T11:20:27.436Z,5.33
2023-04-24T11:22:56.606Z,6.33
2023-04-24T11:25:24.055Z,8.80
2023-04-24T11:30:36.372Z,10.83
2023-04-24T11:35:52.845Z,8.23
2023-04-24T11:38:24.679Z,7.80
2023-04-24T11:40:54.326Z,8.57
2023-04-24T11:43:22.456Z,10.27
2023-04-24T11:45:50.181Z,12.07
2023-04-24T11:48:23.746Z,11.40
2023-04-24T11:50:51.560Z,10.83
2023-04-24T11:53:22.584Z,8.83
2023-04-24T11:55:49.554Z,6.70
2023-04-24T11:58:21.342Z,5.27
2023-04-24T12:00:59.169Z,5.32
2023-04-24T12:03:26.894Z,5.43
2023-04-24T12:06:05.532Z,7.53
2023-04-24T12:11:19.070Z,8.20
2023-04-24T12:13:46.523Z,8.50
2023-04-24T12:16:14.016Z,6.93
2023-04-24T12:21:32.906Z,8.03
2023-04-24T12:23:59.859Z,8.03
2023-04-24T12:26:28.302Z,8.53
2023-04-24T12:28:55.351Z,10.77
2023-04-24T12:31:23.437Z,7.07
2023-04-24T12:33:50.578Z,8.95
2023-04-24T12:36:17.450Z,10.00
2023-04-24T12:41:32.313Z,6.53
2023-04-24T12:43:59.181Z,8.63
2023-04-24T12:49:11.187Z,8.60
2023-04-24T12:51:38.099Z,10.20
2023-04-24T12:56:49.647Z,11.13
2023-04-24T13:02:01.120Z,8.73
2023-04-24T13:04:28.086Z,11.57
2023-04-24T13:06:55.011Z,13.55
2023-04-24T13:09:21.892Z,9.13
2023-04-24T13:11:48.792Z,9.15
2023-04-24T13:14:15.637Z,11.07
2023-04-24T13:16:42.537Z,13.38
2023-04-24T13:19:09.523Z,11.52
2023-04-24T13:21:36.345Z,10.13
2023-04-24T13:29:34.098Z,11.15
2023-04-24T13:32:01.496Z,13.73
2023-04-24T13:39:57.591Z,12.77
2023-04-24T13:42:24.534Z,11.73
2023-04-24T13:47:37.078Z,10.13
2023-04-24T13:50:04.469Z,14.10
2023-04-24T13:52:31.388Z,10.23
2023-04-24T13:54:58.417Z,10.98
2023-04-24T13:57:25.368Z,11.18
2023-04-24T13:59:52.318Z,12.43
2023-04-24T14:02:19.207Z,11.35
2023-04-24T14:04:46.339Z,8.50
2023-04-24T14:07:13.403Z,10.57
2023-04-24T14:09:40.348Z,7.68
2023-04-24T14:12:08.892Z,9.48
2023-04-24T14:14:36.179Z,7.57
2023-04-24T14:17:03.107Z,9.13
2023-04-24T14:19:30.062Z,8.35
2023-04-24T14:21:59.365Z,13.60
2023-04-24T14:24:26.441Z,8.10
2023-04-24T14:26:53.396Z,9.60
2023-04-24T14:29:20.655Z,10.15
2023-04-24T14:31:47.609Z,12.50
2023-04-24T14:34:15.404Z,9.93
2023-04-24T14:36:43.177Z,13.85
2023-04-24T14:39:11.825Z,12.40
2023-04-24T14:41:40.244Z,13.18
2023-04-24T14:44:07.247Z,9.70
2023-04-24T14:46:34.351Z,12.18
2023-04-24T14:49:01.305Z,11.48
2023-04-24T14:51:28.246Z,9.38
2023-04-24T14:53:55.465Z,9.35
2023-04-24T14:56:22.370Z,10.93
2023-04-24T14:58:49.350Z,11.27
2023-04-24T15:01:17.821Z,9.45
2023-04-24T15:03:45.887Z,8.40
2023-04-24T15:06:13.208Z,7.68
2023-04-24T15:08:40.131Z,6.78
2023-04-24T15:11:07.157Z,8.43
2023-04-24T15:13:34.118Z,10.00
2023-04-24T15:16:01.403Z,8.18
2023-04-24T15:18:29.816Z,6.68
2023-04-24T15:20:57.284Z,11.65
2023-04-24T15:23:24.154Z,9.07
2023-04-24T15:25:51.105Z,7.47
2023-04-24T15:28:18.927Z,9.30
2023-04-24T15:30:46.113Z,8.00
2023-04-24T15:33:13.201Z,9.00
2023-04-24T15:35:41.330Z,9.93
2023-04-24T15:38:08.834Z,9.77
2023-04-24T15:40:35.821Z,7.68
2023-04-24T15:43:02.732Z,10.27
2023-04-24T15:45:29.668Z,9.43
2023-04-24T15:47:56.808Z,8.30
2023-04-24T15:50:24.664Z,6.28
2023-04-24T15:52:51.570Z,8.13
2023-04-24T15:55:18.563Z,7.63
2023-04-24T15:57:45.514Z,10.77
2023-04-24T16:00:13.773Z,6.72
2023-04-24T16:02:40.976Z,9.30
2023-04-24T16:05:08.830Z,9.68
2023-04-24T16:07:37.706Z,7.18
2023-04-24T16:10:05.038Z,7.70
2023-04-24T16:12:32.002Z,5.88
2023-04-24T16:14:59.353Z,8.30
2023-04-24T16:17:26.331Z,8.07
2023-04-24T16:19:53.417Z,7.50
2023-04-24T16:22:20.308Z,5.15
2023-04-24T16:24:48.066Z,6.07
2023-04-24T16:27:15.848Z,4.75
2023-04-24T16:29:42.991Z,7.50
2023-04-24T16:32:11.063Z,5.65
2023-04-24T16:34:38.231Z,8.52
2023-04-24T16:37:06.612Z,5.68
2023-04-24T16:39:33.784Z,6.00
2023-04-24T16:42:01.971Z,7.53
2023-04-24T16:44:29.029Z,7.45
2023-04-24T16:46:56.121Z,6.05
2023-04-24T16:49:30.861Z,6.32
2023-04-24T16:51:57.743Z,8.18
2023-04-24T16:54:25.081Z,6.30
2023-04-24T16:56:53.930Z,6.20
2023-04-24T16:59:21.280Z,6.22
2023-04-24T17:01:48.387Z,14.63
2023-04-24T17:04:15.736Z,7.22
2023-04-24T17:06:42.779Z,5.55
2023-04-24T17:09:09.660Z,7.43
2023-04-24T17:11:36.581Z,5.95
2023-04-24T17:14:04.628Z,6.88
2023-04-24T17:16:31.685Z,7.05
2023-04-24T17:18:58.780Z,5.78
2023-04-24T17:21:26.651Z,5.82
2023-04-24T17:23:54.438Z,8.90
2023-04-24T17:26:21.376Z,8.82
2023-04-24T17:28:48.895Z,8.43
2023-04-24T17:31:16.063Z,6.63
2023-04-24T17:33:43.037Z,9.25
2023-04-24T17:36:10.795Z,6.93
2023-04-24T17:38:38.210Z,7.90
2023-04-24T17:41:05.730Z,8.82
2023-04-24T17:43:32.689Z,7.63
2023-04-24T17:46:00.130Z,7.05
2023-04-24T17:48:27.386Z,8.00
2023-04-24T17:50:54.583Z,5.37
2023-04-24T17:53:22.772Z,9.00
2023-04-24T17:55:49.801Z,6.32
2023-04-24T17:58:18.943Z,7.80
2023-04-24T18:00:46.418Z,7.53
2023-04-24T18:03:13.438Z,10.02
2023-04-24T18:05:40.540Z,8.38
2023-04-24T18:08:07.950Z,6.53
2023-04-24T18:10:37.981Z,8.98
2023-04-24T18:13:05.719Z,9.45
2023-04-24T18:15:32.920Z,7.95
2023-04-24T18:18:00.034Z,7.70
2023-04-24T18:20:27.272Z,6.88
2023-04-24T18:22:54.684Z,7.35
2023-04-24T18:25:26.730Z,8.10
2023-04-24T18:27:55.739Z,7.10
2023-04-24T18:30:24.448Z,5.33
2023-04-24T18:32:53.555Z,7.20
2023-04-24T18:35:22.139Z,5.25
2023-04-24T18:37:50.446Z,8.37
2023-04-24T18:40:17.967Z,5.70
2023-04-24T18:42:45.237Z,5.90
2023-04-24T18:45:15.178Z,5.07
2023-04-24T18:47:43.814Z,4.70
2023-04-24T18:50:11.826Z,5.27
2023-04-24T18:52:39.251Z,7.07
2023-04-24T18:55:07.084Z,8.83
2023-04-24T18:57:34.303Z,7.97
2023-04-24T19:00:01.241Z,13.07
2023-04-24T19:02:28.360Z,10.37
2023-04-24T19:04:55.686Z,8.43
2023-04-24T19:07:22.716Z,15.57
2023-04-24T19:09:49.645Z,23.30
2023-04-24T19:12:16.661Z,10.90
2023-04-24T19:14:43.661Z,13.43
2023-04-24T19:17:13.944Z,7.53
2023-04-24T19:19:40.881Z,4.67
2023-04-24T19:22:07.918Z,6.43
2023-04-24T19:24:34.779Z,3.80
2023-04-24T19:27:02.263Z,4.13
2023-04-24T19:29:29.216Z,3.83
2023-04-24T19:31:57.879Z,3.73
2023-04-24T19:34:26.184Z,7.23
2023-04-24T19:36:53.393Z,7.43
2023-04-24T19:39:20.526Z,6.50
2023-04-24T19:41:47.586Z,5.37
2023-04-24T19:44:15.680Z,11.23
2023-04-24T19:46:43.379Z,17.87
2023-04-24T19:49:10.579Z,16.17
2023-04-24T19:51:38.625Z,6.97
2023-04-24T19:54:06.387Z,6.60
2023-04-24T19:56:36.775Z,7.20
2023-04-24T19:59:04.119Z,5.00
2023-04-24T20:01:32.407Z,5.10
2023-04-24T20:03:59.720Z,5.97
2023-04-24T20:06:26.745Z,8.97
2023-04-24T20:08:53.631Z,7.63
2023-04-24T20:11:20.530Z,6.57
2023-04-24T20:13:47.361Z,6.17
2023-04-24T20:16:14.415Z,6.63
2023-04-24T20:18:41.702Z,6.50
2023-04-24T20:21:09.525Z,7.70
2023-04-24T20:23:36.539Z,9.63
2023-04-24T20:26:04.842Z,20.73
2023-04-24T20:28:31.872Z,9.50
2023-04-24T20:30:59.607Z,4.70
2023-04-24T20:33:27.996Z,6.03
2023-04-24T20:35:55.627Z,6.23
2023-04-24T20:38:24.362Z,5.33
2023-04-24T20:40:57.123Z,8.30
2023-04-24T20:43:29.545Z,8.87
2023-04-24T20:46:00.163Z,8.27
2023-04-24T20:48:27.217Z,9.77
2023-04-24T20:50:54.693Z,8.27
2023-04-24T20:53:21.720Z,9.73
2023-04-24T20:55:49.065Z,9.87
2023-04-24T20:58:18.614Z,6.73
2023-04-24T21:00:45.687Z,6.70
2023-04-24T21:03:12.658Z,6.37
2023-04-24T21:05:39.734Z,8.33
2023-04-24T21:08:06.681Z,9.57
2023-04-24T21:10:33.668Z,9.40
2023-04-24T21:13:01.178Z,8.83
2023-04-24T21:15:28.449Z,7.93
2023-04-24T21:17:55.572Z,5.43
2023-04-24T21:20:22.594Z,7.97
2023-04-24T21:22:49.474Z,7.27
2023-04-24T21:25:16.461Z,9.37
2023-04-24T21:27:43.614Z,7.47
2023-04-24T21:30:11.533Z,8.30
2023-04-24T21:32:40.581Z,10.10
2023-04-24T21:35:08.103Z,4.80
2023-04-24T21:37:36.306Z,5.00
2023-04-24T21:40:06.372Z,6.27
2023-04-24T21:42:33.328Z,5.53
2023-04-24T21:45:00.292Z,8.07
2023-04-24T21:47:27.243Z,6.00
2023-04-24T21:49:54.179Z,5.40
2023-04-24T21:52:21.141Z,6.87
2023-04-24T21:54:48.044Z,10.13
2023-04-24T21:57:15.314Z,7.77
2023-04-24T21:59:42.892Z,7.73
2023-04-24T22:02:10.172Z,7.50
2023-04-24T22:04:37.320Z,9.50
2023-04-24T22:07:04.612Z,8.83
2023-04-24T22:09:31.491Z,10.30
2023-04-24T22:11:58.333Z,10.50
2023-04-24T22:14:25.426Z,10.53
2023-04-24T22:16:52.285Z,9.30
2023-04-24T22:19:19.209Z,7.97
2023-04-24T22:21:46.425Z,8.90
2023-04-24T22:24:13.426Z,11.20
2023-04-24T22:26:40.594Z,9.27
2023-04-24T22:29:07.448Z,10.17
2023-04-24T22:31:34.888Z,9.37
2023-04-24T22:34:01.988Z,8.43
2023-04-24T22:36:28.861Z,11.00
2023-04-24T22:38:55.800Z,10.07
2023-04-24T22:41:23.328Z,9.50
2023-04-24T22:43:51.077Z,9.90
2023-04-24T22:46:18.271Z,8.03
2023-04-24T22:48:45.895Z,5.73
2023-04-24T22:51:12.787Z,6.93
2023-04-24T22:53:39.632Z,11.23
2023-04-24T22:56:07.142Z,10.70
2023-04-24T22:58:34.091Z,11.43
2023-04-24T23:01:01.125Z,6.93
2023-04-24T23:03:28.189Z,11.37
2023-04-24T23:05:55.122Z,10.07
2023-04-24T23:08:22.001Z,12.20
2023-04-24T23:10:48.919Z,7.07
2023-04-24T23:13:16.285Z,6.80
2023-04-24T23:15:43.391Z,9.90
2023-04-24T23:18:11.562Z,9.50
2023-04-24T23:20:38.946Z,6.80
2023-04-24T23:23:06.030Z,7.07
2023-04-24T23:25:33.176Z,12.23
2023-04-24T23:28:00.044Z,9.63
2023-04-24T23:30:27.280Z,10.00
2023-04-24T23:32:54.227Z,9.77
2023-04-24T23:35:21.276Z,15.93
2023-04-24T23:37:48.304Z,10.83
2023-04-24T23:40:15.307Z,14.30
2023-04-24T23:42:42.212Z,11.97
2023-04-24T23:45:10.871Z,9.30
2023-04-24T23:47:38.346Z,14.83
2023-04-24T23:50:06.106Z,9.90
2023-04-24T23:52:35.307Z,10.10
2023-04-24T23:55:05.008Z,12.57
2023-04-24T23:57:32.203Z,11.60
2023-04-24T23:59:59.120Z,12.53
